PWSweather.com
Personal Weather Stations
Station Observations
WISCHPK61
Green Bay Schmitt Park, Green Bay, WI 54311

Green Bay Schmitt ParkGreen Bay, WI 54311

Lat: 44.514277, Lon: -87.935067

Elevation: 735

Station Type: Acu Rite Pro Weather Center model 02032C

http://greenbayweathercam.com

High Low Average
Temperature 33.6°F0.9°C 6.6°F-14.1°C 20.6°F-6.3°C
Dew Point 24.9°F-3.9°C 0.1°F-17.7°C 13.3°F-10.4°C
Winds 2.3 mph 3.7 kmh Calm Calm Calm SCalm S
Wind Gusts 5.8 mph9.3 kmh -- 1.0 mph1.6 kmh
Humidity 85% 62% 73%
Pressure 30.01 in1016.3 mb 29.37 in994.6 mb -
Precipitation 0.00 in0.0 mm - -
Hour Temp Dew Point Humidity Winds Wind Gusts Pressure Precip Precip Rate Daily Precip Total
12:00 AM 7.2°F-13.8°C 0.7°F-17.4°C 74% Calm Calm -- 30.00 in1015.9 mb - 0.00 in0.0 mm 0.00 in0.0 mm
12:15 AM 7.2°F-13.8°C 0.4°F-17.6°C 73% Calm Calm -- 30.01 in1016.3 mb - 0.00 in0.0 mm 0.00 in0.0 mm
12:30 AM 7.2°F-13.8°C 0.4°F-17.6°C 73% Calm Calm -- 30.00 in1015.9 mb - 0.00 in0.0 mm 0.00 in0.0 mm
12:45 AM 7.2°F-13.8°C 0.4°F-17.6°C 73% Calm Calm -- 30.01 in1016.3 mb - 0.00 in0.0 mm 0.00 in0.0 mm
01:00 AM 7.2°F-13.8°C 0.7°F-17.4°C 74% Calm Calm -- 30.00 in1015.9 mb - 0.00 in0.0 mm 0.00 in0.0 mm
01:15 AM 7.5°F-13.6°C 0.9°F-17.3°C 74% Calm Calm -- 30.01 in1016.3 mb - 0.00 in0.0 mm 0.00 in0.0 mm
01:30 AM 7.3°F-13.7°C 1.0°F-17.2°C 75% Calm Calm -- 30.01 in1016.3 mb - 0.00 in0.0 mm 0.00 in0.0 mm
01:45 AM 7.0°F-13.9°C 0.7°F-17.4°C 75% Calm Calm -- 30.00 in1015.9 mb - 0.00 in0.0 mm 0.00 in0.0 mm
02:00 AM 6.8°F-14.0°C 0.6°F-17.4°C 75% Calm Calm -- 30.00 in1015.9 mb - 0.00 in0.0 mm 0.00 in0.0 mm
02:15 AM 6.8°F-14.0°C 0.3°F-17.6°C 74% Calm Calm -- 29.99 in1015.6 mb - 0.00 in0.0 mm 0.00 in0.0 mm
02:30 AM 6.6°F-14.1°C 0.1°F-17.7°C 74% Calm Calm -- 29.99 in1015.6 mb - 0.00 in0.0 mm 0.00 in0.0 mm
02:45 AM 7.0°F-13.9°C 0.5°F-17.5°C 74% Calm Calm -- 29.98 in1015.2 mb - 0.00 in0.0 mm 0.00 in0.0 mm
03:00 AM 7.2°F-13.8°C 0.7°F-17.4°C 74% Calm Calm -- 29.97 in1014.9 mb - 0.00 in0.0 mm 0.00 in0.0 mm
03:15 AM 7.5°F-13.6°C 0.7°F-17.4°C 73% Calm Calm -- 29.96 in1014.6 mb - 0.00 in0.0 mm 0.00 in0.0 mm
03:30 AM 7.5°F-13.6°C 1.2°F-17.1°C 75% Calm Calm -- 29.97 in1014.9 mb - 0.00 in0.0 mm 0.00 in0.0 mm
03:45 AM 7.3°F-13.7°C 1.0°F-17.2°C 75% Calm Calm -- 29.97 in1014.9 mb - 0.00 in0.0 mm 0.00 in0.0 mm
04:00 AM 7.2°F-13.8°C 0.9°F-17.3°C 75% Calm Calm -- 29.97 in1014.9 mb - 0.00 in0.0 mm 0.00 in0.0 mm
04:15 AM 7.2°F-13.8°C 1.2°F-17.1°C 76% Calm Calm -- 29.97 in1014.9 mb - 0.00 in0.0 mm 0.00 in0.0 mm
04:30 AM 7.5°F-13.6°C 1.5°F-16.9°C 76% Calm Calm -- 29.97 in1014.9 mb - 0.00 in0.0 mm 0.00 in0.0 mm
04:45 AM 7.9°F-13.4°C 1.6°F-16.9°C 75% Calm Calm -- 29.96 in1014.6 mb - 0.00 in0.0 mm 0.00 in0.0 mm
05:00 AM 8.1°F-13.3°C 1.5°F-16.9°C 74% Calm Calm -- 29.96 in1014.6 mb - 0.00 in0.0 mm 0.00 in0.0 mm
05:15 AM 8.2°F-13.2°C 1.9°F-16.7°C 75% Calm Calm -- 29.95 in1014.2 mb - 0.00 in0.0 mm 0.00 in0.0 mm
05:30 AM 8.4°F-13.1°C 1.8°F-16.8°C 74% Calm Calm -- 29.95 in1014.2 mb - 0.00 in0.0 mm 0.00 in0.0 mm
05:45 AM 8.4°F-13.1°C 1.8°F-16.8°C 74% Calm Calm -- 29.95 in1014.2 mb - 0.00 in0.0 mm 0.00 in0.0 mm
06:00 AM 8.4°F-13.1°C 2.1°F-16.6°C 75% Calm Calm -- 29.95 in1014.2 mb - 0.00 in0.0 mm 0.00 in0.0 mm
06:15 AM 8.4°F-13.1°C 2.4°F-16.4°C 76% Calm Calm -- 29.93 in1013.5 mb - 0.00 in0.0 mm 0.00 in0.0 mm
06:30 AM 8.4°F-13.1°C 2.7°F-16.3°C 77% Calm Calm -- 29.92 in1013.2 mb - 0.00 in0.0 mm 0.00 in0.0 mm
06:45 AM 8.6°F-13.0°C 3.1°F-16.1°C 78% Calm Calm -- 29.92 in1013.2 mb - 0.00 in0.0 mm 0.00 in0.0 mm
07:00 AM 9.5°F-12.5°C 4.0°F-15.6°C 78% Calm Calm -- 29.90 in1012.5 mb - 0.00 in0.0 mm 0.00 in0.0 mm
07:15 AM 10.0°F-12.2°C 4.2°F-15.4°C 77% Calm Calm -- 29.91 in1012.9 mb - 0.00 in0.0 mm 0.00 in0.0 mm
07:30 AM 10.9°F-11.7°C 4.8°F-15.1°C 76% Calm Calm -- 29.91 in1012.9 mb - 0.00 in0.0 mm 0.00 in0.0 mm
07:45 AM 11.8°F-11.2°C 4.8°F-15.1°C 73% Calm Calm -- 29.91 in1012.9 mb - 0.00 in0.0 mm 0.00 in0.0 mm
08:00 AM 12.6°F-10.8°C 5.0°F-15.0°C 71% Calm Calm -- 29.90 in1012.5 mb - 0.00 in0.0 mm 0.00 in0.0 mm
08:15 AM 13.8°F-10.1°C 4.9°F-15.1°C 67% Calm Calm 1.2 mph1.9 kmh 29.87 in1011.5 mb - 0.00 in0.0 mm 0.00 in0.0 mm
08:30 AM 15.6°F-9.1°C 5.2°F-14.9°C 63% 1.2 mph S1.9 kmh S 1.2 mph1.9 kmh 29.87 in1011.5 mb - 0.00 in0.0 mm 0.00 in0.0 mm
08:45 AM 16.7°F-8.5°C 6.3°F-14.3°C 63% 1.2 mph SE1.9 kmh SE -- 29.86 in1011.2 mb - 0.00 in0.0 mm 0.00 in0.0 mm
09:00 AM 18.4°F-7.6°C 8.2°F-13.2°C 64% 1.2 mph SW1.9 kmh SW 2.3 mph3.7 kmh 29.85 in1010.8 mb - 0.00 in0.0 mm 0.00 in0.0 mm
09:15 AM 20.0°F-6.7°C 10.1°F-12.2°C 65% Calm Calm -- 29.86 in1011.2 mb - 0.00 in0.0 mm 0.00 in0.0 mm
09:30 AM 21.9°F-5.6°C 12.3°F-10.9°C 66% 1.2 mph S1.9 kmh S 4.6 mph7.4 kmh 29.84 in1010.5 mb - 0.00 in0.0 mm 0.00 in0.0 mm
09:45 AM 22.9°F-5.1°C 13.2°F-10.4°C 66% Calm Calm 1.2 mph1.9 kmh 29.83 in1010.2 mb - 0.00 in0.0 mm 0.00 in0.0 mm
10:00 AM 24.1°F-4.4°C 15.0°F-9.4°C 68% 1.2 mph SSE1.9 kmh SSE 2.3 mph3.7 kmh 29.82 in1009.8 mb - 0.00 in0.0 mm 0.00 in0.0 mm
10:15 AM 25.3°F-3.7°C 16.5°F-8.6°C 69% 1.2 mph SE1.9 kmh SE 1.2 mph1.9 kmh 29.80 in1009.1 mb - 0.00 in0.0 mm 0.00 in0.0 mm
10:30 AM 26.7°F-2.9°C 18.2°F-7.7°C 70% Calm Calm 2.3 mph3.7 kmh 29.80 in1009.1 mb - 0.00 in0.0 mm 0.00 in0.0 mm
10:45 AM 28.2°F-2.1°C 19.0°F-7.2°C 68% Calm Calm -- 29.79 in1008.8 mb - 0.00 in0.0 mm 0.00 in0.0 mm
11:00 AM 29.0°F-1.7°C 20.4°F-6.4°C 70% 1.2 mph SSE1.9 kmh SSE 1.2 mph1.9 kmh 29.78 in1008.5 mb - 0.00 in0.0 mm 0.00 in0.0 mm
11:15 AM 29.9°F-1.2°C 22.0°F-5.6°C 72% 2.3 mph SSW3.7 kmh SSW 2.3 mph3.7 kmh 29.76 in1007.8 mb - 0.00 in0.0 mm 0.00 in0.0 mm
11:30 AM 30.7°F-0.7°C 23.1°F-4.9°C 73% 1.2 mph WNW1.9 kmh WNW 4.6 mph7.4 kmh 29.74 in1007.1 mb - 0.00 in0.0 mm 0.00 in0.0 mm
11:45 AM 30.6°F-0.8°C 23.9°F-4.5°C 76% 1.2 mph SE1.9 kmh SE 4.6 mph7.4 kmh 29.74 in1007.1 mb - 0.00 in0.0 mm 0.00 in0.0 mm
12:00 PM 31.2°F-0.4°C 24.5°F-4.2°C 76% Calm Calm -- 29.74 in1007.1 mb - 0.00 in0.0 mm 0.00 in0.0 mm
12:15 PM 31.0°F-0.6°C 24.3°F-4.3°C 76% 1.2 mph WSW1.9 kmh WSW 2.3 mph3.7 kmh 29.72 in1006.4 mb - 0.00 in0.0 mm 0.00 in0.0 mm
12:30 PM 31.7°F-0.2°C 24.6°F-4.1°C 75% Calm Calm -- 29.71 in1006.1 mb - 0.00 in0.0 mm 0.00 in0.0 mm
12:45 PM 31.6°F-0.2°C 23.9°F-4.5°C 73% 1.2 mph SW1.9 kmh SW 2.3 mph3.7 kmh 29.71 in1006.1 mb - 0.00 in0.0 mm 0.00 in0.0 mm
01:00 PM 32.2°F0.1°C 24.1°F-4.4°C 72% 1.2 mph SW1.9 kmh SW 3.5 mph5.6 kmh 29.69 in1005.4 mb - 0.00 in0.0 mm 0.00 in0.0 mm
01:15 PM 32.2°F0.1°C 24.2°F-4.3°C 72% 1.2 mph S1.9 kmh S 1.2 mph1.9 kmh 29.67 in1004.7 mb - 0.00 in0.0 mm 0.00 in0.0 mm
01:30 PM 32.7°F0.4°C 24.3°F-4.3°C 71% Calm Calm -- 29.66 in1004.4 mb - 0.00 in0.0 mm 0.00 in0.0 mm
01:45 PM 32.6°F0.3°C 24.3°F-4.3°C 71% Calm Calm 1.2 mph1.9 kmh 29.65 in1004.1 mb - 0.00 in0.0 mm 0.00 in0.0 mm
02:00 PM 33.6°F0.9°C 24.9°F-3.9°C 70% Calm Calm -- 29.65 in1004.1 mb - 0.00 in0.0 mm 0.00 in0.0 mm
02:15 PM 33.1°F0.6°C 23.0°F-5.0°C 66% 1.2 mph SW1.9 kmh SW 1.2 mph1.9 kmh 29.62 in1003.0 mb - 0.00 in0.0 mm 0.00 in0.0 mm
02:30 PM 32.4°F0.2°C 21.6°F-5.8°C 64% 1.2 mph W1.9 kmh W 1.2 mph1.9 kmh 29.61 in1002.7 mb - 0.00 in0.0 mm 0.00 in0.0 mm
02:45 PM 32.0°F0.0°C 21.6°F-5.8°C 65% Calm Calm 4.6 mph7.4 kmh 29.61 in1002.7 mb - 0.00 in0.0 mm 0.00 in0.0 mm
03:00 PM 31.6°F-0.2°C 21.5°F-5.8°C 66% 1.2 mph W1.9 kmh W 1.2 mph1.9 kmh 29.59 in1002.0 mb - 0.00 in0.0 mm 0.00 in0.0 mm
03:15 PM 31.6°F-0.2°C 21.5°F-5.8°C 66% 1.2 mph SE1.9 kmh SE 2.3 mph3.7 kmh 29.57 in1001.4 mb - 0.00 in0.0 mm 0.00 in0.0 mm
03:30 PM 32.0°F0.0°C 21.9°F-5.6°C 66% Calm Calm -- 29.55 in1000.7 mb - 0.00 in0.0 mm 0.00 in0.0 mm
03:45 PM 32.2°F0.1°C 21.7°F-5.7°C 65% 2.3 mph E3.7 kmh E 4.6 mph7.4 kmh 29.55 in1000.7 mb - 0.00 in0.0 mm 0.00 in0.0 mm
04:00 PM 31.5°F-0.3°C 21.4°F-5.9°C 66% 2.3 mph SSE3.7 kmh SSE 4.6 mph7.4 kmh 29.54 in1000.3 mb - 0.00 in0.0 mm 0.00 in0.0 mm
04:15 PM 31.0°F-0.6°C 21.0°F-6.1°C 66% 1.2 mph SE1.9 kmh SE 1.2 mph1.9 kmh 29.51 in999.3 mb - 0.00 in0.0 mm 0.00 in0.0 mm
04:30 PM 30.9°F-0.6°C 19.8°F-6.8°C 63% 1.2 mph S1.9 kmh S 2.3 mph3.7 kmh 29.52 in999.7 mb - 0.00 in0.0 mm 0.00 in0.0 mm
04:45 PM 30.7°F-0.7°C 19.2°F-7.1°C 62% Calm Calm 1.2 mph1.9 kmh 29.52 in999.7 mb - 0.00 in0.0 mm 0.00 in0.0 mm
05:00 PM 30.0°F-1.1°C 18.9°F-7.3°C 63% Calm Calm 2.3 mph3.7 kmh 29.52 in999.7 mb - 0.00 in0.0 mm 0.00 in0.0 mm
05:15 PM 29.2°F-1.6°C 18.5°F-7.5°C 64% Calm Calm 2.3 mph3.7 kmh 29.51 in999.3 mb - 0.00 in0.0 mm 0.00 in0.0 mm
05:30 PM 28.6°F-1.9°C 18.0°F-7.8°C 64% Calm Calm -- 29.51 in999.3 mb - 0.00 in0.0 mm 0.00 in0.0 mm
05:45 PM 27.5°F-2.5°C 20.6°F-6.3°C 75% Calm Calm -- 29.50 in999.0 mb - 0.00 in0.0 mm 0.00 in0.0 mm
06:00 PM 26.4°F-3.1°C 21.4°F-5.9°C 81% Calm Calm -- 29.48 in998.3 mb - 0.00 in0.0 mm 0.00 in0.0 mm
06:15 PM 25.9°F-3.4°C 20.9°F-6.2°C 81% Calm Calm -- 29.47 in998.0 mb - 0.00 in0.0 mm 0.00 in0.0 mm
06:30 PM 25.3°F-3.7°C 20.6°F-6.3°C 82% 1.2 mph SSW1.9 kmh SSW 1.2 mph1.9 kmh 29.46 in997.6 mb - 0.00 in0.0 mm 0.00 in0.0 mm
06:45 PM 25.2°F-3.8°C 20.2°F-6.6°C 81% 1.2 mph S1.9 kmh S 1.2 mph1.9 kmh 29.46 in997.6 mb - 0.00 in0.0 mm 0.00 in0.0 mm
07:00 PM 25.2°F-3.8°C 19.9°F-6.7°C 80% 2.3 mph SSE3.7 kmh SSE 3.5 mph5.6 kmh 29.44 in997.0 mb - 0.00 in0.0 mm 0.00 in0.0 mm
07:15 PM 25.0°F-3.9°C 19.7°F-6.8°C 80% Calm Calm 1.2 mph1.9 kmh 29.44 in997.0 mb - 0.00 in0.0 mm 0.00 in0.0 mm
07:30 PM 24.8°F-4.0°C 19.5°F-6.9°C 80% 1.2 mph S1.9 kmh S -- 29.43 in996.6 mb - 0.00 in0.0 mm 0.00 in0.0 mm
07:45 PM 24.8°F-4.0°C 19.2°F-7.1°C 79% 1.2 mph S1.9 kmh S 1.2 mph1.9 kmh 29.43 in996.6 mb - 0.00 in0.0 mm 0.00 in0.0 mm
08:00 PM 24.6°F-4.1°C 18.7°F-7.4°C 78% Calm Calm -- 29.43 in996.6 mb - 0.00 in0.0 mm 0.00 in0.0 mm
08:15 PM 24.4°F-4.2°C 18.8°F-7.3°C 79% Calm Calm 2.3 mph3.7 kmh 29.43 in996.6 mb - 0.00 in0.0 mm 0.00 in0.0 mm
08:30 PM 24.4°F-4.2°C 18.8°F-7.3°C 79% Calm Calm 1.2 mph1.9 kmh 29.42 in996.3 mb - 0.00 in0.0 mm 0.00 in0.0 mm
08:45 PM 24.4°F-4.2°C 18.8°F-7.3°C 79% Calm Calm 1.2 mph1.9 kmh 29.42 in996.3 mb - 0.00 in0.0 mm 0.00 in0.0 mm
09:00 PM 24.5°F-4.2°C 18.6°F-7.4°C 78% Calm Calm 1.2 mph1.9 kmh 29.41 in995.9 mb - 0.00 in0.0 mm 0.00 in0.0 mm
09:15 PM 24.4°F-4.2°C 18.6°F-7.4°C 78% Calm Calm 2.3 mph3.7 kmh 29.40 in995.6 mb - 0.00 in0.0 mm 0.00 in0.0 mm
09:30 PM 25.3°F-3.7°C 19.4°F-7.0°C 78% Calm Calm 4.6 mph7.4 kmh 29.39 in995.3 mb - 0.00 in0.0 mm 0.00 in0.0 mm
09:45 PM 26.1°F-3.3°C 20.2°F-6.6°C 78% 1.2 mph S1.9 kmh S 5.8 mph9.3 kmh 29.39 in995.3 mb - 0.00 in0.0 mm 0.00 in0.0 mm
10:00 PM 25.9°F-3.4°C 20.3°F-6.5°C 79% 1.2 mph SE1.9 kmh SE 1.2 mph1.9 kmh 29.39 in995.3 mb - 0.00 in0.0 mm 0.00 in0.0 mm
10:15 PM 26.1°F-3.3°C 20.8°F-6.2°C 80% 2.3 mph WSW3.7 kmh WSW 4.6 mph7.4 kmh 29.38 in994.9 mb - 0.00 in0.0 mm 0.00 in0.0 mm
10:30 PM 25.7°F-3.5°C 20.4°F-6.4°C 80% 1.2 mph WNW1.9 kmh WNW 3.5 mph5.6 kmh 29.38 in994.9 mb - 0.00 in0.0 mm 0.00 in0.0 mm
10:45 PM 25.2°F-3.8°C 20.2°F-6.6°C 81% 1.2 mph WSW1.9 kmh WSW 1.2 mph1.9 kmh 29.38 in994.9 mb - 0.00 in0.0 mm 0.00 in0.0 mm
11:00 PM 24.6°F-4.1°C 20.2°F-6.6°C 83% 1.2 mph WNW1.9 kmh WNW 2.3 mph3.7 kmh 29.39 in995.3 mb - 0.00 in0.0 mm 0.00 in0.0 mm
11:15 PM 24.3°F-4.3°C 20.2°F-6.6°C 84% Calm Calm 4.6 mph7.4 kmh 29.38 in994.9 mb - 0.00 in0.0 mm 0.00 in0.0 mm
11:30 PM 23.9°F-4.5°C 20.0°F-6.7°C 85% Calm Calm -- 29.37 in994.6 mb - 0.00 in0.0 mm 0.00 in0.0 mm
11:45 PM 23.7°F-4.6°C 19.9°F-6.7°C 85% Calm Calm -- 29.37 in994.6 mb - 0.00 in0.0 mm 0.00 in0.0 mm